Overton, United Kingdom
Current Conditions -  °F | °C
As of 9:50 AM on Tuesday 21 Oct 2014 (Local Time) from EGVO Reporting Station
Few Clouds Few Clouds  
Wind Chill: 55°   Ceiling: Unl
Heat Index: 55°   Visibility: 6mi
Dew Point: 41°   Wind: 25mph
Humidity: 58%   Direction: 270°W
Pressure: 29.62"   Gusts: NA
Location:  51.24°N, 1.26°W
Report Text: EGVO 210850Z 27022KT 9999 FEW020 13/05 Q1003 BLU NOSIG
Loading
Personal Weather Stations






























Interactive Weather Map
Tropical Storm Tracking
New forecast layout! Learn more

10-Day Weather Forecast

Advertisements
Track Severe Weather on mobile